sensor_id;sensor_type;location;lat;lon;timestamp;P1;durP1;ratioP1;P2;durP2;ratioP2
9370;SDS011;4725;48.384;8.984;2023-03-01T00:01:29;15.23;;;10.57;;
9370;SDS011;4725;48.384;8.984;2023-03-01T00:03:57;13.47;;;10.83;;
9370;SDS011;4725;48.384;8.984;2023-03-01T00:06:24;13.57;;;9.83;;
9370;SDS011;4725;48.384;8.984;2023-03-01T00:08:52;14.00;;;9.10;;
9370;SDS011;4725;48.384;8.984;2023-03-01T00:11:19;13.83;;;9.90;;
9370;SDS011;4725;48.384;8.984;2023-03-01T00:13:49;14.43;;;10.63;;
9370;SDS011;4725;48.384;8.984;2023-03-01T00:16:19;15.70;;;10.27;;
9370;SDS011;4725;48.384;8.984;2023-03-01T00:18:47;13.67;;;10.27;;
9370;SDS011;4725;48.384;8.984;2023-03-01T00:21:15;14.17;;;10.03;;
9370;SDS011;4725;48.384;8.984;2023-03-01T00:23:43;16.90;;;10.40;;
9370;SDS011;4725;48.384;8.984;2023-03-01T00:26:11;15.70;;;10.77;;
9370;SDS011;4725;48.384;8.984;2023-03-01T00:28:39;16.57;;;10.77;;
9370;SDS011;4725;48.384;8.984;2023-03-01T00:31:07;14.87;;;10.27;;
9370;SDS011;4725;48.384;8.984;2023-03-01T00:33:37;20.83;;;12.87;;
9370;SDS011;4725;48.384;8.984;2023-03-01T00:36:04;19.50;;;12.23;;
9370;SDS011;4725;48.384;8.984;2023-03-01T00:38:34;18.87;;;12.27;;
9370;SDS011;4725;48.384;8.984;2023-03-01T00:41:05;18.27;;;12.07;;
9370;SDS011;4725;48.384;8.984;2023-03-01T00:43:33;22.70;;;12.03;;
9370;SDS011;4725;48.384;8.984;2023-03-01T00:46:01;18.30;;;12.10;;
9370;SDS011;4725;48.384;8.984;2023-03-01T00:48:29;17.60;;;12.13;;
9370;SDS011;4725;48.384;8.984;2023-03-01T00:50:57;19.53;;;11.73;;
9370;SDS011;4725;48.384;8.984;2023-03-01T00:53:31;18.73;;;12.67;;
9370;SDS011;4725;48.384;8.984;2023-03-01T00:55:58;17.50;;;12.27;;
9370;SDS011;4725;48.384;8.984;2023-03-01T00:58:25;19.13;;;12.73;;
9370;SDS011;4725;48.384;8.984;2023-03-01T01:00:52;23.07;;;13.67;;
9370;SDS011;4725;48.384;8.984;2023-03-01T01:03:19;17.60;;;11.60;;
9370;SDS011;4725;48.384;8.984;2023-03-01T01:05:46;16.27;;;11.33;;
9370;SDS011;4725;48.384;8.984;2023-03-01T01:08:15;17.77;;;12.43;;
9370;SDS011;4725;48.384;8.984;2023-03-01T01:10:43;15.80;;;10.83;;
9370;SDS011;4725;48.384;8.984;2023-03-01T01:13:10;16.60;;;11.20;;
9370;SDS011;4725;48.384;8.984;2023-03-01T01:15:38;15.27;;;10.70;;
9370;SDS011;4725;48.384;8.984;2023-03-01T01:18:05;17.63;;;10.23;;
9370;SDS011;4725;48.384;8.984;2023-03-01T01:20:32;15.43;;;10.97;;
9370;SDS011;4725;48.384;8.984;2023-03-01T01:23:01;15.80;;;10.60;;
9370;SDS011;4725;48.384;8.984;2023-03-01T01:25:30;16.57;;;10.57;;
9370;SDS011;4725;48.384;8.984;2023-03-01T01:27:57;13.50;;;10.07;;
9370;SDS011;4725;48.384;8.984;2023-03-01T01:30:24;13.77;;;10.67;;
9370;SDS011;4725;48.384;8.984;2023-03-01T01:32:51;13.23;;;9.60;;
9370;SDS011;4725;48.384;8.984;2023-03-01T01:35:18;12.83;;;9.47;;
9370;SDS011;4725;48.384;8.984;2023-03-01T01:37:45;15.67;;;9.67;;
9370;SDS011;4725;48.384;8.984;2023-03-01T01:40:12;14.13;;;9.50;;
9370;SDS011;4725;48.384;8.984;2023-03-01T01:42:41;15.20;;;10.03;;
9370;SDS011;4725;48.384;8.984;2023-03-01T01:45:24;14.70;;;11.37;;
9370;SDS011;4725;48.384;8.984;2023-03-01T01:47:58;14.67;;;10.30;;
9370;SDS011;4725;48.384;8.984;2023-03-01T01:50:28;14.97;;;10.93;;
9370;SDS011;4725;48.384;8.984;2023-03-01T01:53:03;14.50;;;10.33;;
9370;SDS011;4725;48.384;8.984;2023-03-01T01:55:35;13.63;;;9.40;;
9370;SDS011;4725;48.384;8.984;2023-03-01T01:58:05;15.00;;;10.63;;
9370;SDS011;4725;48.384;8.984;2023-03-01T02:00:35;15.30;;;10.60;;
9370;SDS011;4725;48.384;8.984;2023-03-01T02:03:04;14.37;;;10.43;;
9370;SDS011;4725;48.384;8.984;2023-03-01T02:05:36;14.50;;;10.33;;
9370;SDS011;4725;48.384;8.984;2023-03-01T02:08:10;16.17;;;10.33;;
9370;SDS011;4725;48.384;8.984;2023-03-01T02:10:39;13.53;;;9.77;;
9370;SDS011;4725;48.384;8.984;2023-03-01T02:13:08;13.37;;;9.73;;
9370;SDS011;4725;48.384;8.984;2023-03-01T02:15:37;14.27;;;10.80;;
9370;SDS011;4725;48.384;8.984;2023-03-01T02:18:05;15.73;;;9.67;;
9370;SDS011;4725;48.384;8.984;2023-03-01T02:20:34;13.50;;;10.00;;
9370;SDS011;4725;48.384;8.984;2023-03-01T02:23:06;13.80;;;10.13;;
9370;SDS011;4725;48.384;8.984;2023-03-01T02:25:35;13.53;;;10.20;;
9370;SDS011;4725;48.384;8.984;2023-03-01T02:28:09;13.57;;;9.57;;
9370;SDS011;4725;48.384;8.984;2023-03-01T02:30:46;14.07;;;9.97;;
9370;SDS011;4725;48.384;8.984;2023-03-01T02:33:29;15.03;;;9.90;;
9370;SDS011;4725;48.384;8.984;2023-03-01T02:35:57;13.30;;;9.63;;
9370;SDS011;4725;48.384;8.984;2023-03-01T02:38:27;16.73;;;10.43;;
9370;SDS011;4725;48.384;8.984;2023-03-01T02:40:54;15.93;;;10.23;;
9370;SDS011;4725;48.384;8.984;2023-03-01T02:43:25;13.97;;;10.33;;
9370;SDS011;4725;48.384;8.984;2023-03-01T02:45:57;14.37;;;9.53;;
9370;SDS011;4725;48.384;8.984;2023-03-01T02:48:38;12.20;;;9.10;;
9370;SDS011;4725;48.384;8.984;2023-03-01T02:51:07;12.67;;;9.03;;
9370;SDS011;4725;48.384;8.984;2023-03-01T02:53:46;11.10;;;9.23;;
9370;SDS011;4725;48.384;8.984;2023-03-01T02:56:22;11.93;;;8.83;;
9370;SDS011;4725;48.384;8.984;2023-03-01T02:58:51;13.43;;;9.33;;
9370;SDS011;4725;48.384;8.984;2023-03-01T03:01:18;14.27;;;9.77;;
9370;SDS011;4725;48.384;8.984;2023-03-01T03:03:46;14.97;;;10.20;;
9370;SDS011;4725;48.384;8.984;2023-03-01T03:06:16;12.63;;;9.10;;
9370;SDS011;4725;48.384;8.984;2023-03-01T03:08:44;13.47;;;9.50;;
9370;SDS011;4725;48.384;8.984;2023-03-01T03:11:11;15.87;;;9.93;;
9370;SDS011;4725;48.384;8.984;2023-03-01T03:13:38;12.97;;;9.10;;
9370;SDS011;4725;48.384;8.984;2023-03-01T03:16:14;13.77;;;9.07;;
9370;SDS011;4725;48.384;8.984;2023-03-01T03:18:41;13.97;;;9.33;;
9370;SDS011;4725;48.384;8.984;2023-03-01T03:21:08;15.63;;;8.60;;
9370;SDS011;4725;48.384;8.984;2023-03-01T03:23:36;13.33;;;8.63;;
9370;SDS011;4725;48.384;8.984;2023-03-01T03:26:03;15.27;;;9.97;;
9370;SDS011;4725;48.384;8.984;2023-03-01T03:28:31;13.37;;;9.43;;
9370;SDS011;4725;48.384;8.984;2023-03-01T03:30:58;13.37;;;9.40;;
9370;SDS011;4725;48.384;8.984;2023-03-01T03:33:29;12.20;;;9.03;;
9370;SDS011;4725;48.384;8.984;2023-03-01T03:35:56;11.73;;;9.47;;
9370;SDS011;4725;48.384;8.984;2023-03-01T03:38:23;12.90;;;9.90;;
9370;SDS011;4725;48.384;8.984;2023-03-01T03:40:52;11.87;;;8.73;;
9370;SDS011;4725;48.384;8.984;2023-03-01T03:43:27;14.53;;;8.93;;
9370;SDS011;4725;48.384;8.984;2023-03-01T03:45:55;14.40;;;8.27;;
9370;SDS011;4725;48.384;8.984;2023-03-01T03:48:23;12.77;;;9.17;;
9370;SDS011;4725;48.384;8.984;2023-03-01T03:50:53;13.20;;;8.73;;
9370;SDS011;4725;48.384;8.984;2023-03-01T03:53:22;10.33;;;8.70;;
9370;SDS011;4725;48.384;8.984;2023-03-01T03:55:50;12.13;;;8.80;;
9370;SDS011;4725;48.384;8.984;2023-03-01T03:58:18;13.63;;;8.90;;
9370;SDS011;4725;48.384;8.984;2023-03-01T04:00:47;12.23;;;8.60;;
9370;SDS011;4725;48.384;8.984;2023-03-01T04:03:16;12.73;;;9.30;;
9370;SDS011;4725;48.384;8.984;2023-03-01T04:05:45;13.03;;;9.43;;
9370;SDS011;4725;48.384;8.984;2023-03-01T04:08:16;11.67;;;8.97;;
9370;SDS011;4725;48.384;8.984;2023-03-01T04:10:46;15.10;;;8.57;;
9370;SDS011;4725;48.384;8.984;2023-03-01T04:13:15;13.57;;;9.87;;
9370;SDS011;4725;48.384;8.984;2023-03-01T04:15:44;13.10;;;8.57;;
9370;SDS011;4725;48.384;8.984;2023-03-01T04:18:12;13.53;;;9.43;;
9370;SDS011;4725;48.384;8.984;2023-03-01T04:20:40;12.13;;;9.47;;
9370;SDS011;4725;48.384;8.984;2023-03-01T04:23:09;10.80;;;8.37;;
9370;SDS011;4725;48.384;8.984;2023-03-01T04:25:40;11.07;;;8.00;;
9370;SDS011;4725;48.384;8.984;2023-03-01T04:28:08;13.30;;;9.10;;
9370;SDS011;4725;48.384;8.984;2023-03-01T04:30:36;12.33;;;8.67;;
9370;SDS011;4725;48.384;8.984;2023-03-01T04:33:05;14.50;;;9.13;;
9370;SDS011;4725;48.384;8.984;2023-03-01T04:35:32;11.77;;;8.70;;
9370;SDS011;4725;48.384;8.984;2023-03-01T04:38:01;13.53;;;9.10;;
9370;SDS011;4725;48.384;8.984;2023-03-01T04:40:28;11.73;;;8.43;;
9370;SDS011;4725;48.384;8.984;2023-03-01T04:42:56;10.60;;;8.30;;
9370;SDS011;4725;48.384;8.984;2023-03-01T04:45:23;13.20;;;9.10;;
9370;SDS011;4725;48.384;8.984;2023-03-01T04:47:50;14.77;;;8.30;;
9370;SDS011;4725;48.384;8.984;2023-03-01T04:50:18;12.77;;;8.83;;
9370;SDS011;4725;48.384;8.984;2023-03-01T04:52:47;10.63;;;8.47;;
9370;SDS011;4725;48.384;8.984;2023-03-01T04:55:14;13.63;;;9.73;;
9370;SDS011;4725;48.384;8.984;2023-03-01T04:57:41;15.13;;;9.60;;
9370;SDS011;4725;48.384;8.984;2023-03-01T05:00:10;15.30;;;9.80;;
9370;SDS011;4725;48.384;8.984;2023-03-01T05:02:46;12.93;;;9.43;;
9370;SDS011;4725;48.384;8.984;2023-03-01T05:05:18;13.63;;;9.73;;
9370;SDS011;4725;48.384;8.984;2023-03-01T05:07:46;16.83;;;10.73;;
9370;SDS011;4725;48.384;8.984;2023-03-01T05:10:14;16.23;;;10.20;;
9370;SDS011;4725;48.384;8.984;2023-03-01T05:12:41;15.33;;;9.57;;
9370;SDS011;4725;48.384;8.984;2023-03-01T05:15:10;14.90;;;10.67;;
9370;SDS011;4725;48.384;8.984;2023-03-01T05:17:37;13.77;;;10.50;;
9370;SDS011;4725;48.384;8.984;2023-03-01T05:20:04;13.60;;;9.43;;
9370;SDS011;4725;48.384;8.984;2023-03-01T05:22:33;16.13;;;9.40;;
9370;SDS011;4725;48.384;8.984;2023-03-01T05:25:00;15.00;;;10.13;;
9370;SDS011;4725;48.384;8.984;2023-03-01T05:27:27;12.53;;;9.47;;
9370;SDS011;4725;48.384;8.984;2023-03-01T05:29:55;13.57;;;10.00;;
9370;SDS011;4725;48.384;8.984;2023-03-01T05:32:23;13.60;;;9.57;;
9370;SDS011;4725;48.384;8.984;2023-03-01T05:34:50;13.97;;;9.73;;
9370;SDS011;4725;48.384;8.984;2023-03-01T05:37:20;14.73;;;10.23;;
9370;SDS011;4725;48.384;8.984;2023-03-01T05:39:47;13.80;;;10.37;;
9370;SDS011;4725;48.384;8.984;2023-03-01T05:42:15;14.47;;;10.20;;
9370;SDS011;4725;48.384;8.984;2023-03-01T05:44:43;13.07;;;9.90;;
9370;SDS011;4725;48.384;8.984;2023-03-01T05:47:10;13.97;;;9.60;;
9370;SDS011;4725;48.384;8.984;2023-03-01T05:49:38;16.13;;;10.93;;
9370;SDS011;4725;48.384;8.984;2023-03-01T05:52:05;14.63;;;9.53;;
9370;SDS011;4725;48.384;8.984;2023-03-01T05:54:32;13.37;;;9.60;;
9370;SDS011;4725;48.384;8.984;2023-03-01T05:56:59;13.83;;;9.83;;
9370;SDS011;4725;48.384;8.984;2023-03-01T05:59:26;12.43;;;9.53;;
9370;SDS011;4725;48.384;8.984;2023-03-01T06:01:53;16.30;;;10.37;;
9370;SDS011;4725;48.384;8.984;2023-03-01T06:04:20;13.83;;;9.43;;
9370;SDS011;4725;48.384;8.984;2023-03-01T06:06:48;13.00;;;9.10;;
9370;SDS011;4725;48.384;8.984;2023-03-01T06:09:15;17.30;;;10.57;;
9370;SDS011;4725;48.384;8.984;2023-03-01T06:11:42;13.03;;;9.13;;
9370;SDS011;4725;48.384;8.984;2023-03-01T06:14:09;13.67;;;10.23;;
9370;SDS011;4725;48.384;8.984;2023-03-01T06:16:39;13.80;;;9.80;;
9370;SDS011;4725;48.384;8.984;2023-03-01T06:19:06;17.63;;;10.50;;
9370;SDS011;4725;48.384;8.984;2023-03-01T06:21:33;11.83;;;9.53;;
9370;SDS011;4725;48.384;8.984;2023-03-01T06:24:01;14.87;;;9.80;;
9370;SDS011;4725;48.384;8.984;2023-03-01T06:26:28;12.40;;;10.07;;
9370;SDS011;4725;48.384;8.984;2023-03-01T06:28:55;13.57;;;9.90;;
9370;SDS011;4725;48.384;8.984;2023-03-01T06:31:22;14.10;;;10.30;;
9370;SDS011;4725;48.384;8.984;2023-03-01T06:33:49;13.30;;;10.20;;
9370;SDS011;4725;48.384;8.984;2023-03-01T06:36:16;15.07;;;10.60;;
9370;SDS011;4725;48.384;8.984;2023-03-01T06:38:46;15.77;;;10.47;;
9370;SDS011;4725;48.384;8.984;2023-03-01T06:41:14;14.17;;;10.90;;
9370;SDS011;4725;48.384;8.984;2023-03-01T06:43:41;14.80;;;10.37;;
9370;SDS011;4725;48.384;8.984;2023-03-01T06:46:08;14.67;;;9.63;;
9370;SDS011;4725;48.384;8.984;2023-03-01T06:48:35;14.33;;;10.63;;
9370;SDS011;4725;48.384;8.984;2023-03-01T06:51:02;15.23;;;10.30;;
9370;SDS011;4725;48.384;8.984;2023-03-01T06:53:30;13.70;;;9.30;;
9370;SDS011;4725;48.384;8.984;2023-03-01T06:55:56;12.93;;;9.73;;
9370;SDS011;4725;48.384;8.984;2023-03-01T06:58:26;12.73;;;9.20;;
9370;SDS011;4725;48.384;8.984;2023-03-01T07:00:53;16.63;;;10.60;;
9370;SDS011;4725;48.384;8.984;2023-03-01T07:03:20;13.47;;;10.33;;
9370;SDS011;4725;48.384;8.984;2023-03-01T07:05:48;12.33;;;9.70;;
9370;SDS011;4725;48.384;8.984;2023-03-01T07:08:16;17.03;;;10.17;;
9370;SDS011;4725;48.384;8.984;2023-03-01T07:10:43;13.07;;;9.83;;
9370;SDS011;4725;48.384;8.984;2023-03-01T07:13:10;13.40;;;10.20;;
9370;SDS011;4725;48.384;8.984;2023-03-01T07:15:39;13.50;;;10.20;;
9370;SDS011;4725;48.384;8.984;2023-03-01T07:18:07;14.60;;;10.10;;
9370;SDS011;4725;48.384;8.984;2023-03-01T07:20:34;11.73;;;9.37;;
9370;SDS011;4725;48.384;8.984;2023-03-01T07:23:01;14.10;;;9.73;;
9370;SDS011;4725;48.384;8.984;2023-03-01T07:25:28;15.83;;;10.17;;
9370;SDS011;4725;48.384;8.984;2023-03-01T07:27:55;13.60;;;10.00;;
9370;SDS011;4725;48.384;8.984;2023-03-01T07:30:22;13.73;;;10.03;;
9370;SDS011;4725;48.384;8.984;2023-03-01T07:32:52;13.00;;;9.87;;
9370;SDS011;4725;48.384;8.984;2023-03-01T07:35:19;13.27;;;10.10;;
9370;SDS011;4725;48.384;8.984;2023-03-01T07:37:46;15.67;;;10.87;;
9370;SDS011;4725;48.384;8.984;2023-03-01T07:40:15;13.07;;;10.23;;
9370;SDS011;4725;48.384;8.984;2023-03-01T07:42:42;16.83;;;10.70;;
9370;SDS011;4725;48.384;8.984;2023-03-01T07:45:09;38.57;;;11.97;;
9370;SDS011;4725;48.384;8.984;2023-03-01T07:47:38;19.40;;;11.60;;
9370;SDS011;4725;48.384;8.984;2023-03-01T07:50:07;29.90;;;11.73;;
9370;SDS011;4725;48.384;8.984;2023-03-01T07:52:34;25.10;;;11.37;;
9370;SDS011;4725;48.384;8.984;2023-03-01T07:55:01;21.60;;;10.83;;
9370;SDS011;4725;48.384;8.984;2023-03-01T07:57:28;17.80;;;11.07;;
9370;SDS011;4725;48.384;8.984;2023-03-01T07:59:56;13.63;;;9.87;;
9370;SDS011;4725;48.384;8.984;2023-03-01T08:02:23;16.03;;;10.13;;
9370;SDS011;4725;48.384;8.984;2023-03-01T08:04:50;16.27;;;10.83;;
9370;SDS011;4725;48.384;8.984;2023-03-01T08:07:18;15.70;;;10.10;;
9370;SDS011;4725;48.384;8.984;2023-03-01T08:09:45;14.37;;;9.77;;
9370;SDS011;4725;48.384;8.984;2023-03-01T08:12:12;14.13;;;10.47;;
9370;SDS011;4725;48.384;8.984;2023-03-01T08:14:41;15.03;;;11.63;;
9370;SDS011;4725;48.384;8.984;2023-03-01T08:17:08;17.33;;;10.70;;
9370;SDS011;4725;48.384;8.984;2023-03-01T08:19:35;13.37;;;10.37;;
9370;SDS011;4725;48.384;8.984;2023-03-01T08:22:02;15.17;;;10.83;;
9370;SDS011;4725;48.384;8.984;2023-03-01T08:24:30;14.53;;;10.13;;
9370;SDS011;4725;48.384;8.984;2023-03-01T08:26:57;13.23;;;10.23;;
9370;SDS011;4725;48.384;8.984;2023-03-01T08:29:24;14.93;;;10.67;;
9370;SDS011;4725;48.384;8.984;2023-03-01T08:31:51;16.60;;;10.20;;
9370;SDS011;4725;48.384;8.984;2023-03-01T08:34:18;15.20;;;10.63;;
9370;SDS011;4725;48.384;8.984;2023-03-01T08:36:45;13.57;;;9.73;;
9370;SDS011;4725;48.384;8.984;2023-03-01T08:39:13;13.60;;;10.33;;
9370;SDS011;4725;48.384;8.984;2023-03-01T08:41:44;15.20;;;10.17;;
9370;SDS011;4725;48.384;8.984;2023-03-01T08:44:12;17.13;;;11.60;;
9370;SDS011;4725;48.384;8.984;2023-03-01T08:46:41;13.37;;;10.83;;
9370;SDS011;4725;48.384;8.984;2023-03-01T08:49:10;25.20;;;11.20;;
9370;SDS011;4725;48.384;8.984;2023-03-01T08:51:39;14.40;;;10.87;;
9370;SDS011;4725;48.384;8.984;2023-03-01T08:54:07;14.30;;;10.73;;
9370;SDS011;4725;48.384;8.984;2023-03-01T08:56:37;27.90;;;14.00;;
9370;SDS011;4725;48.384;8.984;2023-03-01T08:59:05;14.73;;;11.23;;
9370;SDS011;4725;48.384;8.984;2023-03-01T09:01:32;19.60;;;11.63;;
9370;SDS011;4725;48.384;8.984;2023-03-01T09:04:00;16.83;;;10.80;;
9370;SDS011;4725;48.384;8.984;2023-03-01T09:06:27;17.30;;;11.63;;
9370;SDS011;4725;48.384;8.984;2023-03-01T09:08:58;15.73;;;11.57;;
9370;SDS011;4725;48.384;8.984;2023-03-01T09:11:25;18.87;;;11.53;;
9370;SDS011;4725;48.384;8.984;2023-03-01T09:13:53;18.33;;;11.43;;
9370;SDS011;4725;48.384;8.984;2023-03-01T09:16:22;23.40;;;13.37;;
9370;SDS011;4725;48.384;8.984;2023-03-01T09:18:50;21.63;;;12.50;;
9370;SDS011;4725;48.384;8.984;2023-03-01T09:21:18;14.90;;;10.23;;
9370;SDS011;4725;48.384;8.984;2023-03-01T09:23:46;21.33;;;12.43;;
9370;SDS011;4725;48.384;8.984;2023-03-01T09:26:15;15.93;;;11.40;;
9370;SDS011;4725;48.384;8.984;2023-03-01T09:28:44;17.97;;;12.10;;
9370;SDS011;4725;48.384;8.984;2023-03-01T09:31:11;18.90;;;11.47;;
9370;SDS011;4725;48.384;8.984;2023-03-01T09:33:41;27.20;;;11.27;;
9370;SDS011;4725;48.384;8.984;2023-03-01T09:36:10;17.87;;;11.60;;
9370;SDS011;4725;48.384;8.984;2023-03-01T09:38:39;16.43;;;11.07;;
9370;SDS011;4725;48.384;8.984;2023-03-01T09:41:09;19.70;;;11.00;;
9370;SDS011;4725;48.384;8.984;2023-03-01T09:43:40;14.77;;;11.17;;
9370;SDS011;4725;48.384;8.984;2023-03-01T09:46:11;19.43;;;11.17;;
9370;SDS011;4725;48.384;8.984;2023-03-01T09:48:43;17.20;;;12.07;;
9370;SDS011;4725;48.384;8.984;2023-03-01T09:51:16;18.63;;;11.93;;
9370;SDS011;4725;48.384;8.984;2023-03-01T09:53:46;13.27;;;11.13;;
9370;SDS011;4725;48.384;8.984;2023-03-01T09:56:14;33.63;;;13.50;;
9370;SDS011;4725;48.384;8.984;2023-03-01T09:58:47;21.27;;;11.47;;
9370;SDS011;4725;48.384;8.984;2023-03-01T10:01:29;15.63;;;12.00;;
9370;SDS011;4725;48.384;8.984;2023-03-01T10:04:04;19.60;;;12.03;;
9370;SDS011;4725;48.384;8.984;2023-03-01T10:06:44;14.53;;;11.77;;
9370;SDS011;4725;48.384;8.984;2023-03-01T10:09:17;14.67;;;11.37;;
9370;SDS011;4725;48.384;8.984;2023-03-01T10:11:47;21.13;;;11.93;;
9370;SDS011;4725;48.384;8.984;2023-03-01T10:14:24;21.63;;;12.07;;
9370;SDS011;4725;48.384;8.984;2023-03-01T10:16:57;16.00;;;12.23;;
9370;SDS011;4725;48.384;8.984;2023-03-01T10:19:30;25.67;;;13.40;;
9370;SDS011;4725;48.384;8.984;2023-03-01T10:22:03;25.37;;;12.40;;
9370;SDS011;4725;48.384;8.984;2023-03-01T10:24:31;27.57;;;13.73;;
9370;SDS011;4725;48.384;8.984;2023-03-01T10:27:03;18.93;;;12.53;;
9370;SDS011;4725;48.384;8.984;2023-03-01T10:29:34;18.33;;;11.97;;
9370;SDS011;4725;48.384;8.984;2023-03-01T10:32:08;15.13;;;11.60;;
9370;SDS011;4725;48.384;8.984;2023-03-01T10:34:38;30.67;;;13.40;;
9370;SDS011;4725;48.384;8.984;2023-03-01T10:37:08;21.10;;;12.30;;
9370;SDS011;4725;48.384;8.984;2023-03-01T10:39:53;18.07;;;10.97;;
9370;SDS011;4725;48.384;8.984;2023-03-01T10:42:23;18.73;;;11.90;;
9370;SDS011;4725;48.384;8.984;2023-03-01T10:44:53;12.10;;;9.87;;
9370;SDS011;4725;48.384;8.984;2023-03-01T10:47:21;14.63;;;10.80;;
9370;SDS011;4725;48.384;8.984;2023-03-01T10:49:56;15.10;;;11.73;;
9370;SDS011;4725;48.384;8.984;2023-03-01T10:52:26;13.70;;;11.23;;
9370;SDS011;4725;48.384;8.984;2023-03-01T10:54:59;15.47;;;11.93;;
9370;SDS011;4725;48.384;8.984;2023-03-01T10:57:29;13.13;;;11.27;;
9370;SDS011;4725;48.384;8.984;2023-03-01T11:00:01;14.73;;;12.13;;
9370;SDS011;4725;48.384;8.984;2023-03-01T11:02:46;14.30;;;11.47;;
9370;SDS011;4725;48.384;8.984;2023-03-01T11:05:23;14.63;;;11.50;;
9370;SDS011;4725;48.384;8.984;2023-03-01T11:07:51;13.23;;;11.27;;
9370;SDS011;4725;48.384;8.984;2023-03-01T11:10:21;11.87;;;10.67;;
9370;SDS011;4725;48.384;8.984;2023-03-01T11:12:50;13.67;;;10.87;;
9370;SDS011;4725;48.384;8.984;2023-03-01T11:15:22;13.77;;;12.13;;
9370;SDS011;4725;48.384;8.984;2023-03-01T11:17:52;14.57;;;11.00;;
9370;SDS011;4725;48.384;8.984;2023-03-01T11:20:25;13.13;;;10.83;;
9370;SDS011;4725;48.384;8.984;2023-03-01T11:22:57;12.57;;;11.27;;
9370;SDS011;4725;48.384;8.984;2023-03-01T11:25:29;11.95;;;10.75;;
9370;SDS011;4725;48.384;8.984;2023-03-01T11:27:59;12.57;;;11.00;;
9370;SDS011;4725;48.384;8.984;2023-03-01T11:30:31;15.20;;;11.15;;
9370;SDS011;4725;48.384;8.984;2023-03-01T11:33:13;11.82;;;9.93;;
9370;SDS011;4725;48.384;8.984;2023-03-01T11:35:47;13.45;;;11.00;;
9370;SDS011;4725;48.384;8.984;2023-03-01T11:38:22;11.68;;;10.43;;
9370;SDS011;4725;48.384;8.984;2023-03-01T11:40:52;12.98;;;11.68;;
9370;SDS011;4725;48.384;8.984;2023-03-01T11:43:28;15.15;;;11.25;;
9370;SDS011;4725;48.384;8.984;2023-03-01T11:46:08;17.77;;;12.00;;
9370;SDS011;4725;48.384;8.984;2023-03-01T11:49:08;40.80;;;14.60;;
9370;SDS011;4725;48.384;8.984;2023-03-01T11:51:51;16.58;;;12.23;;
9370;SDS011;4725;48.384;8.984;2023-03-01T11:54:28;14.00;;;11.30;;
9370;SDS011;4725;48.384;8.984;2023-03-01T11:57:04;13.57;;;12.13;;
9370;SDS011;4725;48.384;8.984;2023-03-01T12:02:58;12.43;;;11.23;;
9370;SDS011;4725;48.384;8.984;2023-03-01T12:05:46;11.48;;;10.30;;
9370;SDS011;4725;48.384;8.984;2023-03-01T12:08:38;13.50;;;11.60;;
9370;SDS011;4725;48.384;8.984;2023-03-01T12:11:15;13.68;;;11.57;;
9370;SDS011;4725;48.384;8.984;2023-03-01T12:13:56;12.20;;;10.93;;
9370;SDS011;4725;48.384;8.984;2023-03-01T12:16:36;11.98;;;10.65;;
9370;SDS011;4725;48.384;8.984;2023-03-01T12:19:31;14.70;;;11.65;;
9370;SDS011;4725;48.384;8.984;2023-03-01T12:22:09;17.38;;;12.23;;
9370;SDS011;4725;48.384;8.984;2023-03-01T12:24:54;13.82;;;10.93;;
9370;SDS011;4725;48.384;8.984;2023-03-01T12:27:44;16.17;;;11.18;;
9370;SDS011;4725;48.384;8.984;2023-03-01T12:30:29;13.48;;;10.57;;
9370;SDS011;4725;48.384;8.984;2023-03-01T12:33:09;13.02;;;11.60;;
9370;SDS011;4725;48.384;8.984;2023-03-01T12:36:03;12.52;;;10.70;;
9370;SDS011;4725;48.384;8.984;2023-03-01T12:38:46;13.80;;;10.23;;
9370;SDS011;4725;48.384;8.984;2023-03-01T12:44:20;12.20;;;10.23;;
9370;SDS011;4725;48.384;8.984;2023-03-01T12:47:00;12.82;;;10.85;;
9370;SDS011;4725;48.384;8.984;2023-03-01T12:49:37;15.32;;;11.27;;
9370;SDS011;4725;48.384;8.984;2023-03-01T12:52:09;12.40;;;11.10;;
9370;SDS011;4725;48.384;8.984;2023-03-01T12:54:39;12.20;;;10.10;;
9370;SDS011;4725;48.384;8.984;2023-03-01T12:57:08;12.68;;;11.35;;
9370;SDS011;4725;48.384;8.984;2023-03-01T12:59:42;13.23;;;10.77;;
9370;SDS011;4725;48.384;8.984;2023-03-01T13:02:26;11.43;;;10.30;;
9370;SDS011;4725;48.384;8.984;2023-03-01T13:05:05;13.38;;;10.88;;
9370;SDS011;4725;48.384;8.984;2023-03-01T13:07:52;11.73;;;10.48;;
9370;SDS011;4725;48.384;8.984;2023-03-01T13:10:25;14.50;;;12.88;;
9370;SDS011;4725;48.384;8.984;2023-03-01T13:13:11;13.23;;;11.38;;
9370;SDS011;4725;48.384;8.984;2023-03-01T13:15:40;16.00;;;11.85;;
9370;SDS011;4725;48.384;8.984;2023-03-01T13:20:57;12.25;;;10.65;;
9370;SDS011;4725;48.384;8.984;2023-03-01T13:23:28;14.50;;;10.57;;
9370;SDS011;4725;48.384;8.984;2023-03-01T13:26:04;12.80;;;11.50;;
9370;SDS011;4725;48.384;8.984;2023-03-01T13:28:50;13.43;;;11.73;;
9370;SDS011;4725;48.384;8.984;2023-03-01T13:37:32;19.23;;;13.15;;
9370;SDS011;4725;48.384;8.984;2023-03-01T13:45:56;12.93;;;11.73;;
9370;SDS011;4725;48.384;8.984;2023-03-01T13:48:25;19.38;;;11.93;;
9370;SDS011;4725;48.384;8.984;2023-03-01T13:50:57;13.35;;;11.77;;
9370;SDS011;4725;48.384;8.984;2023-03-01T13:53:26;30.77;;;14.13;;
9370;SDS011;4725;48.384;8.984;2023-03-01T13:55:57;15.25;;;11.70;;
9370;SDS011;4725;48.384;8.984;2023-03-01T13:58:28;21.20;;;12.63;;
9370;SDS011;4725;48.384;8.984;2023-03-01T14:00:59;13.05;;;11.45;;
9370;SDS011;4725;48.384;8.984;2023-03-01T14:03:27;14.13;;;11.85;;
9370;SDS011;4725;48.384;8.984;2023-03-01T14:05:59;17.15;;;11.63;;
9370;SDS011;4725;48.384;8.984;2023-03-01T14:08:31;14.05;;;11.38;;
9370;SDS011;4725;48.384;8.984;2023-03-01T14:11:16;12.57;;;10.93;;
9370;SDS011;4725;48.384;8.984;2023-03-01T14:14:14;15.77;;;11.23;;
9370;SDS011;4725;48.384;8.984;2023-03-01T14:16:55;14.23;;;11.25;;
9370;SDS011;4725;48.384;8.984;2023-03-01T14:19:30;19.38;;;11.93;;
9370;SDS011;4725;48.384;8.984;2023-03-01T14:21:58;16.15;;;12.07;;
9370;SDS011;4725;48.384;8.984;2023-03-01T14:24:28;30.77;;;13.35;;
9370;SDS011;4725;48.384;8.984;2023-03-01T14:26:58;13.30;;;11.77;;
9370;SDS011;4725;48.384;8.984;2023-03-01T14:29:33;13.90;;;12.10;;
9370;SDS011;4725;48.384;8.984;2023-03-01T14:32:11;15.38;;;13.07;;
9370;SDS011;4725;48.384;8.984;2023-03-01T14:34:44;13.43;;;12.02;;
9370;SDS011;4725;48.384;8.984;2023-03-01T14:37:21;13.27;;;11.10;;
9370;SDS011;4725;48.384;8.984;2023-03-01T14:39:51;12.77;;;11.57;;
9370;SDS011;4725;48.384;8.984;2023-03-01T14:42:18;28.92;;;14.77;;
9370;SDS011;4725;48.384;8.984;2023-03-01T14:44:47;17.13;;;12.25;;
9370;SDS011;4725;48.384;8.984;2023-03-01T14:47:22;15.60;;;12.27;;
9370;SDS011;4725;48.384;8.984;2023-03-01T14:49:54;15.05;;;11.30;;
9370;SDS011;4725;48.384;8.984;2023-03-01T14:52:25;12.88;;;11.55;;
9370;SDS011;4725;48.384;8.984;2023-03-01T14:54:59;13.40;;;12.07;;
9370;SDS011;4725;48.384;8.984;2023-03-01T14:57:29;13.30;;;11.90;;
9370;SDS011;4725;48.384;8.984;2023-03-01T14:59:57;18.98;;;13.20;;
9370;SDS011;4725;48.384;8.984;2023-03-01T15:02:31;13.70;;;12.35;;
9370;SDS011;4725;48.384;8.984;2023-03-01T15:05:00;18.63;;;12.38;;
9370;SDS011;4725;48.384;8.984;2023-03-01T15:07:30;13.40;;;12.00;;
9370;SDS011;4725;48.384;8.984;2023-03-01T15:10:02;15.00;;;12.45;;
9370;SDS011;4725;48.384;8.984;2023-03-01T15:12:35;13.18;;;11.75;;
9370;SDS011;4725;48.384;8.984;2023-03-01T15:18:02;13.38;;;12.07;;
9370;SDS011;4725;48.384;8.984;2023-03-01T15:20:32;13.85;;;12.40;;
9370;SDS011;4725;48.384;8.984;2023-03-01T15:23:01;15.38;;;13.13;;
9370;SDS011;4725;48.384;8.984;2023-03-01T15:25:30;13.55;;;12.15;;
9370;SDS011;4725;48.384;8.984;2023-03-01T15:27:59;14.73;;;12.35;;
9370;SDS011;4725;48.384;8.984;2023-03-01T15:30:29;14.70;;;11.80;;
9370;SDS011;4725;48.384;8.984;2023-03-01T15:33:25;17.17;;;11.95;;
9370;SDS011;4725;48.384;8.984;2023-03-01T15:35:58;14.27;;;12.60;;